createdAt,value
2018-12-23T00:00:39.482Z,98328.07
2018-12-23T00:03:11.067Z,98337.11
2018-12-23T00:05:42.475Z,98338.92
2018-12-23T00:08:14.080Z,98338.05
2018-12-23T00:10:45.527Z,98347.67
2018-12-23T00:13:17.086Z,98350.31
2018-12-23T00:15:48.531Z,98351.45
2018-12-23T00:18:20.181Z,98356.05
2018-12-23T00:20:51.655Z,98358.02
2018-12-23T00:23:23.290Z,98353.19
2018-12-23T00:25:54.703Z,98354.23
2018-12-23T00:28:26.064Z,98353.76
2018-12-23T00:30:57.554Z,98353.70
2018-12-23T00:33:29.199Z,98358.58
2018-12-23T00:36:00.606Z,98359.98
2018-12-23T00:38:32.196Z,98361.55
2018-12-23T00:41:03.620Z,98360.00
2018-12-23T00:43:35.096Z,98367.20
2018-12-23T00:46:06.718Z,98369.32
2018-12-23T00:48:38.217Z,98368.23
2018-12-23T00:51:09.828Z,98370.17
2018-12-23T00:53:41.328Z,98373.23
2018-12-23T00:56:13.283Z,98379.31
2018-12-23T00:58:44.704Z,98387.99
2018-12-23T01:01:16.282Z,98395.73
2018-12-23T01:03:47.695Z,98398.38
2018-12-23T01:06:19.531Z,98404.86
2018-12-23T01:08:51.326Z,98408.00
2018-12-23T01:11:23.026Z,98408.42
2018-12-23T01:13:54.673Z,98410.80
2018-12-23T01:16:26.118Z,98411.91
2018-12-23T01:18:57.667Z,98412.70
2018-12-23T01:21:29.098Z,98409.47
2018-12-23T01:24:00.687Z,98413.43
2018-12-23T01:26:32.294Z,98426.70
2018-12-23T01:29:03.795Z,98432.27
2018-12-23T01:31:35.401Z,98432.91
2018-12-23T01:34:06.807Z,98420.17
2018-12-23T01:36:38.412Z,98418.41
2018-12-23T01:39:09.912Z,98421.27
2018-12-23T01:41:41.511Z,98425.03
2018-12-23T01:44:13.073Z,98429.67
2018-12-23T01:46:44.488Z,98435.35
2018-12-23T01:49:16.023Z,98439.64
2018-12-23T01:51:47.435Z,98440.86
2018-12-23T01:54:19.018Z,98441.13
2018-12-23T01:56:50.640Z,98443.70
2018-12-23T01:59:22.138Z,98439.72
2018-12-23T02:01:53.746Z,98439.10
2018-12-23T02:04:25.355Z,98442.38
2018-12-23T02:06:56.960Z,98441.50
2018-12-23T02:09:28.471Z,98438.86
2018-12-23T02:11:59.992Z,98450.53
2018-12-23T02:14:31.468Z,98450.94
2018-12-23T02:17:02.967Z,98458.61
2018-12-23T02:19:34.466Z,98470.56
2018-12-23T02:22:05.971Z,98468.47
2018-12-23T02:24:37.474Z,98467.78
2018-12-23T02:27:09.084Z,98457.49
2018-12-23T02:29:42.371Z,98458.08
2018-12-23T02:32:13.923Z,98461.39
2018-12-23T02:34:45.327Z,98464.23
2018-12-23T02:37:16.934Z,98451.83
2018-12-23T02:39:48.448Z,98459.05
2018-12-23T02:42:20.039Z,98455.08
2018-12-23T02:44:51.440Z,98460.44
2018-12-23T02:47:23.045Z,98463.63
2018-12-23T02:49:54.551Z,98464.00
2018-12-23T02:52:26.160Z,98466.36
2018-12-23T02:54:57.660Z,98460.91
2018-12-23T02:57:29.191Z,98461.16
2018-12-23T03:00:00.862Z,98459.78
2018-12-23T03:02:32.411Z,98455.69
2018-12-23T03:05:03.904Z,98459.84
2018-12-23T03:07:35.402Z,98462.41
2018-12-23T03:10:07.139Z,98468.31
2018-12-23T03:12:38.764Z,98459.54
2018-12-23T03:15:10.162Z,98465.08
2018-12-23T03:17:41.733Z,98461.70
2018-12-23T03:20:13.343Z,98450.97
2018-12-23T03:22:44.745Z,98449.88
2018-12-23T03:25:16.352Z,98458.61
2018-12-23T03:27:47.944Z,98449.67
2018-12-23T03:30:19.563Z,98455.44
2018-12-23T03:32:51.066Z,98466.59
2018-12-23T03:35:22.990Z,98468.78
2018-12-23T03:37:54.574Z,98464.99
2018-12-23T03:40:26.136Z,98468.19
2018-12-23T03:42:57.681Z,98475.95
2018-12-23T03:45:29.230Z,98478.38
2018-12-23T03:48:00.846Z,98471.83
2018-12-23T03:50:33.502Z,98474.45
2018-12-23T03:53:04.932Z,98474.11
2018-12-23T03:55:36.470Z,98467.88
2018-12-23T03:58:07.940Z,98476.30
2018-12-23T04:00:39.550Z,98467.74
2018-12-23T04:03:11.136Z,98469.34
2018-12-23T04:05:42.758Z,98473.91
2018-12-23T04:08:14.271Z,98488.54
2018-12-23T04:10:45.958Z,98497.63
2018-12-23T04:13:17.359Z,98493.62
2018-12-23T04:15:48.785Z,98493.54
2018-12-23T04:18:20.359Z,98493.01
2018-12-23T04:20:51.762Z,98500.64
2018-12-23T04:23:23.255Z,98492.65
2018-12-23T04:25:54.739Z,98493.13
2018-12-23T04:28:26.261Z,98487.78
2018-12-23T04:30:57.879Z,98489.78
2018-12-23T04:33:29.378Z,98498.83
2018-12-23T04:36:00.988Z,98495.72
2018-12-23T04:38:32.482Z,98483.80
2018-12-23T04:41:04.036Z,98489.48
2018-12-23T04:43:35.585Z,98484.44
2018-12-23T04:46:07.019Z,98479.63
2018-12-23T04:48:38.680Z,98482.20
2018-12-23T04:51:10.102Z,98478.13
2018-12-23T04:53:41.604Z,98477.18
2018-12-23T04:56:13.155Z,98477.08
2018-12-23T04:58:44.708Z,98478.05
2018-12-23T05:01:16.115Z,98478.52
2018-12-23T05:03:47.598Z,98475.48
2018-12-23T05:06:19.034Z,98478.38
2018-12-23T05:08:50.611Z,98483.39
2018-12-23T05:11:22.231Z,98489.49
2018-12-23T05:13:53.722Z,98486.36
2018-12-23T05:16:25.338Z,98488.11
2018-12-23T05:18:56.842Z,98490.75
2018-12-23T05:21:28.447Z,98489.86
2018-12-23T05:23:59.952Z,98490.42
2018-12-23T05:26:31.560Z,98488.42
2018-12-23T05:29:03.055Z,98481.14
2018-12-23T05:31:34.662Z,98487.86
2018-12-23T05:34:06.059Z,98493.70
2018-12-23T05:36:37.689Z,98498.43
2018-12-23T05:39:09.523Z,98503.97
2018-12-23T05:41:41.115Z,98503.93
2018-12-23T05:44:12.740Z,98505.53
2018-12-23T05:46:44.239Z,98509.39
2018-12-23T05:49:15.847Z,98510.50
2018-12-23T05:51:47.358Z,98504.75
2018-12-23T05:54:18.959Z,98501.24
2018-12-23T05:56:50.473Z,98508.25
2018-12-23T05:59:22.053Z,98508.10
2018-12-23T06:01:53.562Z,98513.02
2018-12-23T06:04:25.167Z,98508.56
2018-12-23T06:07:01.077Z,98516.52
2018-12-23T06:09:32.323Z,98519.75
2018-12-23T06:12:03.867Z,98526.20
2018-12-23T06:14:35.322Z,98529.07
2018-12-23T06:17:06.872Z,98531.03
2018-12-23T06:19:38.379Z,98544.31
2018-12-23T06:22:09.833Z,98539.77
2018-12-23T06:24:41.427Z,98542.47
2018-12-23T06:27:12.835Z,98538.83
2018-12-23T06:29:44.391Z,98534.61
2018-12-23T06:32:15.842Z,98537.47
2018-12-23T06:34:47.395Z,98535.48
2018-12-23T06:37:18.763Z,98530.48
2018-12-23T06:39:50.335Z,98530.00
2018-12-23T06:42:21.898Z,98539.03
2018-12-23T06:44:53.449Z,98534.34
2018-12-23T06:47:25.006Z,98535.37
2018-12-23T06:49:56.575Z,98535.61
2018-12-23T06:52:27.970Z,98533.77
2018-12-23T06:54:59.563Z,98536.45
2018-12-23T06:57:31.119Z,98530.18
2018-12-23T07:00:02.685Z,98530.11
2018-12-23T07:02:34.082Z,98523.89
2018-12-23T07:05:05.588Z,98527.64
2018-12-23T07:07:36.992Z,98529.97
2018-12-23T07:10:09.679Z,98528.89
2018-12-23T07:12:41.116Z,98527.92
2018-12-23T07:15:12.815Z,98533.20
2018-12-23T07:17:44.231Z,98531.89
2018-12-23T07:20:15.820Z,98525.32
2018-12-23T07:22:47.440Z,98514.50
2018-12-23T07:25:18.944Z,98519.10
2018-12-23T07:27:50.546Z,98520.99
2018-12-23T07:30:22.050Z,98519.81
2018-12-23T07:32:53.656Z,98516.16
2018-12-23T07:35:25.149Z,98518.78
2018-12-23T07:37:56.686Z,98520.23
2018-12-23T07:40:28.154Z,98520.34
2018-12-23T07:42:59.704Z,98521.13
2018-12-23T07:45:31.163Z,98529.97
2018-12-23T07:48:02.726Z,98527.47
2018-12-23T07:50:34.184Z,98527.55
2018-12-23T07:53:05.776Z,98526.57
2018-12-23T07:55:37.279Z,98530.55
2018-12-23T07:58:08.823Z,98533.09
2018-12-23T08:00:40.301Z,98527.59
2018-12-23T08:03:11.897Z,98523.80
2018-12-23T08:05:43.387Z,98532.38
2018-12-23T08:08:14.940Z,98528.38
2018-12-23T08:10:46.503Z,98534.66
2018-12-23T08:13:18.249Z,98535.60
2018-12-23T08:15:49.802Z,98544.30
2018-12-23T08:18:21.357Z,98549.00
2018-12-23T08:20:52.765Z,98548.69
2018-12-23T08:23:24.360Z,98550.80
2018-12-23T08:25:55.784Z,98546.39
2018-12-23T08:28:27.354Z,98550.06
2018-12-23T08:30:58.918Z,98548.97
2018-12-23T08:33:30.463Z,98547.66
2018-12-23T08:36:01.987Z,98545.11
2018-12-23T08:38:33.490Z,98548.20
2018-12-23T08:41:05.091Z,98546.00
2018-12-23T08:43:36.604Z,98539.41
2018-12-23T08:46:08.198Z,98543.66
2018-12-23T08:48:39.694Z,98549.25
2018-12-23T08:51:11.311Z,98548.55
2018-12-23T08:53:42.810Z,98543.22
2018-12-23T08:56:14.428Z,98546.86
2018-12-23T08:58:45.921Z,98545.80
2018-12-23T09:01:17.526Z,98547.69
2018-12-23T09:03:49.021Z,98549.17
2018-12-23T09:06:20.635Z,98546.59
2018-12-23T09:08:52.135Z,98551.55
2018-12-23T09:11:23.671Z,98550.72
2018-12-23T09:13:55.135Z,98545.45
2018-12-23T09:16:26.677Z,98552.87
2018-12-23T09:18:58.142Z,98551.55
2018-12-23T09:21:29.792Z,98548.41
2018-12-23T09:24:01.348Z,98539.55
2018-12-23T09:26:32.896Z,98541.24
2018-12-23T09:29:04.519Z,98536.30
2018-12-23T09:31:36.113Z,98536.58
2018-12-23T09:34:07.722Z,98537.20
2018-12-23T09:36:39.242Z,98532.40
2018-12-23T09:39:10.827Z,98534.84
2018-12-23T09:41:42.327Z,98537.94
2018-12-23T09:44:13.940Z,98529.45
2018-12-23T09:46:45.345Z,98527.14
2018-12-23T09:49:16.939Z,98526.95
2018-12-23T09:51:48.441Z,98521.53
2018-12-23T09:54:20.050Z,98518.50
2018-12-23T09:56:53.117Z,98513.39
2018-12-23T09:59:24.939Z,98514.39
2018-12-23T10:01:56.362Z,98510.42
2018-12-23T10:04:27.952Z,98509.82
2018-12-23T10:06:59.503Z,98514.80
2018-12-23T10:09:31.047Z,98505.81
2018-12-23T10:12:02.633Z,98501.78
2018-12-23T10:14:34.071Z,98492.79
2018-12-23T10:17:05.615Z,98490.67
2018-12-23T10:19:37.075Z,98487.73
2018-12-23T10:22:08.685Z,98484.15
2018-12-23T10:24:40.085Z,98485.87
2018-12-23T10:27:11.698Z,98478.02
2018-12-23T10:29:43.390Z,98474.19
2018-12-23T10:32:15.003Z,98476.30
2018-12-23T10:34:46.496Z,98463.48
2018-12-23T10:37:18.343Z,98460.58
2018-12-23T10:39:49.770Z,98459.98
2018-12-23T10:42:21.355Z,98448.05
2018-12-23T10:44:53.017Z,98451.27
2018-12-23T10:47:24.471Z,98454.94
2018-12-23T10:49:56.182Z,98443.56
2018-12-23T10:52:27.693Z,98444.52
2018-12-23T10:54:59.292Z,98438.72
2018-12-23T10:57:30.802Z,98435.78
2018-12-23T11:00:02.407Z,98433.41
2018-12-23T11:02:33.898Z,98428.30
2018-12-23T11:05:05.406Z,98423.20
2018-12-23T11:07:36.811Z,98415.66
2018-12-23T11:10:09.064Z,98402.59
2018-12-23T11:12:40.519Z,98400.37
2018-12-23T11:15:12.183Z,98394.02
2018-12-23T11:17:43.574Z,98387.60
2018-12-23T11:20:14.973Z,98383.58
2018-12-23T11:22:46.486Z,98384.75
2018-12-23T11:25:17.981Z,98386.50
2018-12-23T11:27:49.398Z,98380.72
2018-12-23T11:30:20.986Z,98383.34
2018-12-23T11:32:52.410Z,98374.59
2018-12-23T11:35:23.991Z,98371.21
2018-12-23T11:37:55.543Z,98364.27
2018-12-23T11:40:27.977Z,98357.91
2018-12-23T11:42:59.500Z,98358.44
2018-12-23T11:45:31.244Z,98352.39
2018-12-23T11:48:02.702Z,98348.64
2018-12-23T11:50:34.231Z,98344.14
2018-12-23T11:53:05.707Z,98337.77
2018-12-23T11:55:37.255Z,98333.44
2018-12-23T11:58:08.700Z,98331.76
2018-12-23T12:00:40.254Z,98330.81
2018-12-23T12:03:11.721Z,98328.81
2018-12-23T12:05:43.255Z,98321.06
2018-12-23T12:08:14.716Z,98312.34
2018-12-23T12:10:46.265Z,98308.97
2018-12-23T12:13:17.717Z,98306.34
2018-12-23T12:15:49.262Z,98303.11
2018-12-23T12:18:20.720Z,98294.63
2018-12-23T12:20:52.381Z,98293.87
2018-12-23T12:23:23.844Z,98284.42
2018-12-23T12:25:55.377Z,98284.59
2018-12-23T12:28:26.842Z,98287.44
2018-12-23T12:30:58.451Z,98283.42
2018-12-23T12:33:29.960Z,98278.13
2018-12-23T12:36:01.357Z,98270.53
2018-12-23T12:38:32.940Z,98265.59
2018-12-23T12:41:04.557Z,98263.80
2018-12-23T12:43:36.153Z,98267.31
2018-12-23T12:46:07.707Z,98265.09
2018-12-23T12:48:39.261Z,98262.06
2018-12-23T12:51:10.813Z,98252.42
2018-12-23T12:53:42.369Z,98247.72
2018-12-23T12:56:13.917Z,98243.14
2018-12-23T12:58:45.484Z,98245.55
2018-12-23T13:01:17.029Z,98240.41
2018-12-23T13:03:48.589Z,98237.31
2018-12-23T13:06:20.136Z,98233.25
2018-12-23T13:08:51.699Z,98234.52
2018-12-23T13:11:23.106Z,98225.49
2018-12-23T13:13:54.693Z,98219.99
2018-12-23T13:16:26.163Z,98218.75
2018-12-23T13:18:57.805Z,98207.77
2018-12-23T13:21:29.420Z,98199.38
2018-12-23T13:24:00.932Z,98199.10
2018-12-23T13:26:32.565Z,98202.09
2018-12-23T13:29:04.031Z,98197.31
2018-12-23T13:31:35.580Z,98196.03
2018-12-23T13:34:07.044Z,98181.96
2018-12-23T13:36:38.575Z,98176.48
2018-12-23T13:39:12.376Z,98182.42
2018-12-23T13:42:03.509Z,98185.05
2018-12-23T13:44:54.517Z,98186.17
2018-12-23T13:49:00.384Z,98177.34
2018-12-23T13:52:50.683Z,98174.61
2018-12-23T13:56:34.301Z,98164.66
2018-12-23T13:59:27.154Z,98156.77
2018-12-23T14:05:29.219Z,98148.59
2018-12-23T14:08:17.927Z,98136.18
2018-12-23T14:11:59.015Z,98138.38
2018-12-23T14:14:30.578Z,98137.59
2018-12-23T14:17:02.019Z,98129.02
2018-12-23T14:19:34.020Z,98138.75
2018-12-23T14:22:05.439Z,98129.55
2018-12-23T14:24:36.974Z,98125.17
2018-12-23T14:27:08.439Z,98125.80
2018-12-23T14:29:39.978Z,98126.87
2018-12-23T14:32:11.439Z,98122.51
2018-12-23T14:34:42.986Z,98115.88
2018-12-23T14:37:14.539Z,98105.60
2018-12-23T14:39:46.015Z,98107.75
2018-12-23T14:42:17.551Z,98108.31
2018-12-23T14:44:49.004Z,98105.05
2018-12-23T14:47:20.654Z,98097.75
2018-12-23T14:49:52.066Z,98095.34
2018-12-23T14:52:23.767Z,98086.55
2018-12-23T14:54:55.173Z,98088.58
2018-12-23T14:57:26.774Z,98084.45
2018-12-23T14:59:58.379Z,98078.48
2018-12-23T15:02:29.867Z,98075.69
2018-12-23T15:05:01.485Z,98077.39
2018-12-23T15:07:32.994Z,98065.78
2018-12-23T15:10:04.746Z,98059.30
2018-12-23T15:12:36.250Z,98056.70
2018-12-23T15:15:07.945Z,98052.18
2018-12-23T15:17:39.366Z,98048.59
2018-12-23T15:20:10.938Z,98040.22
2018-12-23T15:22:42.567Z,98035.75
2018-12-23T15:25:13.975Z,98032.44
2018-12-23T15:27:45.577Z,98026.97
2018-12-23T15:30:17.090Z,98027.27
2018-12-23T15:32:48.687Z,98027.34
2018-12-23T15:35:20.205Z,98016.05
2018-12-23T15:37:51.791Z,98018.03
2018-12-23T15:40:23.302Z,98017.86
2018-12-23T15:42:54.904Z,98014.50
2018-12-23T15:45:26.375Z,98012.03
2018-12-23T15:47:57.799Z,98006.64
2018-12-23T15:50:29.292Z,97999.48
2018-12-23T15:53:00.766Z,97990.88
2018-12-23T15:55:32.300Z,97989.27
2018-12-23T15:58:03.758Z,97983.91
2018-12-23T16:00:35.319Z,97987.61
2018-12-23T16:03:06.767Z,97974.77
2018-12-23T16:05:38.372Z,97969.55
2018-12-23T16:08:09.857Z,97967.67
2018-12-23T16:10:41.427Z,97966.98
2018-12-23T16:13:12.981Z,97961.38
2018-12-23T16:15:44.631Z,97949.68
2018-12-23T16:18:16.135Z,97941.34
2018-12-23T16:20:47.752Z,97939.34
2018-12-23T16:23:19.144Z,97944.36
2018-12-23T16:25:50.646Z,97934.44
2018-12-23T16:28:22.045Z,97925.88
2018-12-23T16:30:53.552Z,97932.12
2018-12-23T16:33:25.019Z,97931.36
2018-12-23T16:35:56.616Z,97926.38
2018-12-23T16:38:28.127Z,97918.00
2018-12-23T16:40:59.650Z,97907.53
2018-12-23T16:43:31.111Z,97901.70
2018-12-23T16:46:02.668Z,97894.81
2018-12-23T16:48:34.114Z,97886.73
2018-12-23T16:51:05.730Z,97881.41
2018-12-23T16:53:37.228Z,97871.84
2018-12-23T16:56:08.827Z,97863.98
2018-12-23T16:58:40.325Z,97859.02
2018-12-23T17:01:11.750Z,97862.36
2018-12-23T17:03:43.318Z,97863.92
2018-12-23T17:06:14.742Z,97855.91
2018-12-23T17:08:46.226Z,97851.59
2018-12-23T17:11:17.661Z,97852.77
2018-12-23T17:13:49.248Z,97839.11
2018-12-23T17:16:20.675Z,97834.50
2018-12-23T17:18:52.238Z,97830.17
2018-12-23T17:21:23.863Z,97827.30
2018-12-23T17:23:55.457Z,97822.66
2018-12-23T17:26:26.876Z,97818.00
2018-12-23T17:28:58.464Z,97820.39
2018-12-23T17:31:30.080Z,97816.88
2018-12-23T17:34:01.587Z,97812.87
2018-12-23T17:36:32.996Z,97809.67
2018-12-23T17:39:06.129Z,97799.84
2018-12-23T17:41:37.521Z,97788.58
2018-12-23T17:44:09.120Z,97790.00
2018-12-23T17:46:40.673Z,97781.45
2018-12-23T17:49:12.226Z,97774.67
2018-12-23T17:51:43.679Z,97778.20
2018-12-23T17:54:15.311Z,97764.58
2018-12-23T17:56:46.751Z,97751.20
2018-12-23T17:59:18.357Z,97744.94
2018-12-23T18:01:49.908Z,97749.41
2018-12-23T18:04:21.369Z,97737.46
2018-12-23T18:06:52.902Z,97723.16
2018-12-23T18:09:24.352Z,97725.14
2018-12-23T18:11:55.934Z,97724.16
2018-12-23T18:14:27.784Z,97725.18
2018-12-23T18:16:59.325Z,97728.39
2018-12-23T18:19:30.976Z,97724.30
2018-12-23T18:22:02.531Z,97724.75
2018-12-23T18:24:33.944Z,97716.55
2018-12-23T18:27:05.545Z,97723.90
2018-12-23T18:29:37.142Z,97719.27
2018-12-23T18:32:08.649Z,97704.88
2018-12-23T18:34:40.255Z,97697.23
2018-12-23T18:37:11.760Z,97683.11
2018-12-23T18:40:33.492Z,97693.55
2018-12-23T18:43:22.724Z,97695.65
2018-12-23T18:45:55.071Z,97687.12
2018-12-23T18:48:27.280Z,97685.19
2018-12-23T18:50:59.490Z,97681.19
2018-12-23T18:53:31.679Z,97671.54
2018-12-23T18:56:03.889Z,97661.19
2018-12-23T18:58:36.084Z,97652.16
2018-12-23T19:01:08.997Z,97647.79
2018-12-23T19:03:41.554Z,97632.43
2018-12-23T19:06:14.336Z,97630.95
2018-12-23T19:09:13.134Z,97625.88
2018-12-23T19:12:45.777Z,97632.66
2018-12-23T19:16:34.326Z,97621.41
2018-12-23T19:20:21.400Z,97619.52
2018-12-23T19:24:00.077Z,97599.33
2018-12-23T19:27:34.465Z,97596.92
2018-12-23T19:31:02.508Z,97587.80
2018-12-23T19:34:15.373Z,97575.06
2018-12-23T19:38:07.589Z,97575.80
2018-12-23T19:41:52.646Z,97579.74
2018-12-23T19:45:36.921Z,97573.77
2018-12-23T19:48:59.637Z,97561.12
2018-12-23T19:52:21.814Z,97550.23
2018-12-23T19:55:50.964Z,97548.69
2018-12-23T19:59:45.239Z,97540.42
2018-12-23T20:03:00.471Z,97520.19
2018-12-23T20:06:45.821Z,97515.34
2018-12-23T20:10:20.963Z,97518.95
2018-12-23T20:14:04.784Z,97511.09
2018-12-23T20:17:30.020Z,97518.30
2018-12-23T20:21:00.745Z,97510.96
2018-12-23T20:24:38.041Z,97503.84
2018-12-23T20:28:12.842Z,97503.98
2018-12-23T20:31:50.827Z,97482.51
2018-12-23T20:35:18.640Z,97481.02
2018-12-23T20:38:39.133Z,97467.03
2018-12-23T20:42:46.551Z,97466.20
2018-12-23T20:46:31.823Z,97475.81
2018-12-23T20:50:15.238Z,97474.24
2018-12-23T20:53:22.076Z,97469.04
2018-12-23T20:56:40.561Z,97473.45
2018-12-23T21:00:15.022Z,97466.95
2018-12-23T21:04:04.470Z,97456.08
2018-12-23T21:07:51.187Z,97440.07
2018-12-23T21:11:35.462Z,97430.47
2018-12-23T21:15:14.826Z,97420.23
2018-12-23T21:19:10.883Z,97415.07
2018-12-23T21:22:17.728Z,97423.14
2018-12-23T21:26:04.112Z,97412.61
2018-12-23T21:29:56.716Z,97405.00
2018-12-23T21:33:25.565Z,97397.38
2018-12-23T21:36:37.986Z,97397.09
2018-12-23T21:40:14.007Z,97392.88
2018-12-23T21:43:48.764Z,97383.97
2018-12-23T21:47:44.481Z,97374.77
2018-12-23T21:51:40.058Z,97367.09
2018-12-23T21:54:58.487Z,97355.87
2018-12-23T21:58:36.134Z,97351.41
2018-12-23T22:02:11.215Z,97340.74
2018-12-23T22:05:44.540Z,97327.50
2018-12-23T22:09:11.909Z,97332.98
2018-12-23T22:12:53.076Z,97330.00
2018-12-23T22:15:25.454Z,97312.34
2018-12-23T22:17:57.857Z,97302.37
2018-12-23T22:20:30.534Z,97282.47
2018-12-23T22:23:03.605Z,97282.78
2018-12-23T22:25:36.240Z,97268.38
2018-12-23T22:28:08.579Z,97261.39
2018-12-23T22:30:40.900Z,97252.70
2018-12-23T22:33:13.109Z,97253.77
2018-12-23T22:35:45.319Z,97250.13
2018-12-23T22:38:17.519Z,97237.14
2018-12-23T22:41:01.525Z,97235.96
2018-12-23T22:43:33.872Z,97233.39
2018-12-23T22:46:06.348Z,97221.33
2018-12-23T22:48:39.177Z,97209.16
2018-12-23T22:51:11.652Z,97219.31
2018-12-23T22:53:44.115Z,97225.97
2018-12-23T22:56:16.494Z,97220.23
2018-12-23T22:58:50.397Z,97210.97
2018-12-23T23:01:23.989Z,97205.34
2018-12-23T23:03:56.361Z,97206.84
2018-12-23T23:06:28.730Z,97207.37
2018-12-23T23:09:01.095Z,97187.28
2018-12-23T23:11:33.462Z,97187.02
2018-12-23T23:14:05.835Z,97182.55
2018-12-23T23:16:38.221Z,97174.44
2018-12-23T23:19:10.584Z,97165.91
2018-12-23T23:21:42.965Z,97167.84
2018-12-23T23:24:15.320Z,97166.23
2018-12-23T23:26:47.737Z,97160.23
2018-12-23T23:29:20.109Z,97156.23
2018-12-23T23:31:52.480Z,97150.30
2018-12-23T23:34:24.952Z,97147.44
2018-12-23T23:36:57.322Z,97143.05
2018-12-23T23:39:29.687Z,97136.61
2018-12-23T23:42:02.053Z,97132.91
2018-12-23T23:44:34.435Z,97173.19
2018-12-23T23:47:06.905Z,97207.30
2018-12-23T23:49:39.262Z,97190.14
2018-12-23T23:52:11.735Z,97195.61
2018-12-23T23:54:44.095Z,97195.56
2018-12-23T23:57:16.476Z,97189.48
2018-12-23T23:59:48.829Z,97197.88
